Time;durP1;ratioP1;P1;durP2;ratioP2;P2;SDS_P1;SDS_P2;PMS_P1;PMS_P2;Temp;Humidity;BMP_temperature;BMP_pressure;BME280_temperature;BME280_humidity;BME280_pressure;Samples;Min_cycle;Max_cycle;Signal;HPM_P1;HPM_P2
2023/01/23 00:00:33;;;;;;;26.00;14.90;;;;;;;1.60;92.31;102238.83;107522;1254;81640;-57
2023/01/23 00:03:26;;;;;;;27.50;16.10;;;;;;;1.51;92.20;102238.95;107530;1254;100003;-57
2023/01/23 00:06:07;;;;;;;29.70;14.50;;;;;;;1.48;92.36;102239.52;107501;1254;87362;-56
2023/01/23 00:08:45;;;;;;;27.10;14.60;;;;;;;1.49;92.30;102238.40;107422;1257;93531;-55
2023/01/23 00:11:21;;;;;;;23.20;14.40;;;;;;;1.47;92.51;102240.46;107537;1254;80472;-57
2023/01/23 00:13:59;;;;;;;24.90;14.20;;;;;;;1.46;92.47;102245.63;107539;1254;83201;-57
2023/01/23 00:16:43;;;;;;;25.00;13.70;;;;;;;1.48;92.51;102246.29;107537;1254;98207;-54
2023/01/23 00:19:15;;;;;;;24.40;15.30;;;;;;;1.52;92.58;102246.55;107514;1254;87410;-54
2023/01/23 00:21:47;;;;;;;25.40;15.20;;;;;;;1.53;92.47;102245.41;107522;1254;94122;-55
2023/01/23 00:24:28;;;;;;;25.50;14.30;;;;;;;1.56;92.46;102246.66;107501;1254;81886;-55
2023/01/23 00:27:04;;;;;;;24.50;14.10;;;;;;;1.58;92.63;102251.52;107520;1254;83204;-55
2023/01/23 00:29:46;;;;;;;25.70;14.10;;;;;;;1.47;92.75;102259.43;107544;1254;98405;-56
2023/01/23 00:32:22;;;;;;;24.90;14.20;;;;;;;1.44;92.72;102263.33;107504;1254;88182;-56
2023/01/23 00:35:04;;;;;;;24.50;15.10;;;;;;;1.42;92.84;102263.64;107469;1254;93213;-55
2023/01/23 00:37:35;;;;;;;25.10;14.90;;;;;;;1.43;92.83;102261.64;107508;1254;79879;-55
2023/01/23 00:40:12;;;;;;;23.20;14.20;;;;;;;1.47;92.89;102262.45;107481;1254;83902;-54
2023/01/23 00:42:48;;;;;;;25.50;15.10;;;;;;;1.45;92.94;102259.20;107488;1254;98555;-55
2023/01/23 00:45:23;;;;;;;28.10;15.20;;;;;;;1.47;92.99;102253.41;107444;1254;88942;-54
2023/01/23 00:48:02;;;;;;;24.00;14.00;;;;;;;1.47;92.91;102255.02;107395;1254;94260;-54
2023/01/23 00:50:40;;;;;;;26.30;14.40;;;;;;;1.49;93.04;102253.45;107374;1254;83258;-55
2023/01/23 00:53:18;;;;;;;25.60;14.40;;;;;;;1.47;93.08;102253.40;107473;1257;83031;-54
2023/01/23 00:55:54;;;;;;;22.20;13.40;;;;;;;1.52;92.95;102254.17;107485;1254;97578;-55
2023/01/23 00:58:30;;;;;;;25.90;14.20;;;;;;;1.44;93.10;102254.83;107423;1255;87927;-57
2023/01/23 01:01:02;;;;;;;24.50;14.30;;;;;;;1.46;93.15;102256.50;107455;1257;93992;-54
2023/01/23 01:03:34;;;;;;;23.00;14.10;;;;;;;1.48;93.27;102262.94;107453;1254;78759;-53
2023/01/23 01:06:10;;;;;;;23.40;14.80;;;;;;;1.50;93.06;102261.40;107501;1254;82708;-52
2023/01/23 01:08:52;;;;;;;27.90;15.10;;;;;;;1.52;93.12;102267.84;107486;1255;98218;-54
2023/01/23 01:11:27;;;;;;;24.10;13.80;;;;;;;1.55;93.13;102269.09;107557;1254;88350;-57
2023/01/23 01:14:00;;;;;;;25.50;15.00;;;;;;;1.59;93.12;102267.44;107513;1253;94083;-56
2023/01/23 01:16:33;;;;;;;27.40;14.00;;;;;;;1.59;93.11;102268.52;107514;1254;80830;-54
2023/01/23 01:19:16;;;;;;;26.30;13.60;;;;;;;1.61;93.06;102272.84;107551;1254;80974;-54
2023/01/23 01:21:50;;;;;;;26.40;13.90;;;;;;;1.60;93.09;102270.04;107504;1255;98978;-56
2023/01/23 01:24:26;;;;;;;24.30;14.10;;;;;;;1.60;93.12;102273.81;107531;1254;86092;-55
2023/01/23 01:27:02;;;;;;;24.60;13.70;;;;;;;1.62;93.01;102273.69;107483;1255;93187;-54
2023/01/23 01:29:33;;;;;;;21.10;13.30;;;;;;;1.62;93.17;102279.70;107501;1257;79447;-55
2023/01/23 01:32:06;;;;;;;27.60;14.50;;;;;;;1.59;93.22;102274.95;107516;1257;83259;-55
2023/01/23 01:34:41;;;;;;;25.70;14.20;;;;;;;1.55;93.16;102281.73;107502;1257;98087;-56
2023/01/23 01:37:21;;;;;;;25.00;14.20;;;;;;;1.55;93.01;102278.71;107509;1254;86912;-57
2023/01/23 01:39:55;;;;;;;29.10;15.00;;;;;;;1.53;92.98;102281.83;107494;1254;95165;-54
2023/01/23 01:42:29;;;;;;;26.80;14.70;;;;;;;1.53;93.02;102286.65;107461;1254;80239;-53
2023/01/23 01:45:03;;;;;;;26.30;15.60;;;;;;;1.54;93.12;102290.30;107484;1254;81668;-55
2023/01/23 01:47:42;;;;;;;22.70;14.00;;;;;;;1.56;93.16;102293.22;107442;1254;98179;-55
2023/01/23 01:50:16;;;;;;;25.60;13.80;;;;;;;1.58;93.13;102296.13;107485;1253;88186;-53
2023/01/23 01:52:54;;;;;;;26.30;14.20;;;;;;;1.55;93.17;102294.52;107416;1254;95237;-55
2023/01/23 01:55:32;;;;;;;27.90;13.60;;;;;;;1.53;93.17;102295.66;107497;1254;80009;-58
2023/01/23 01:58:21;;;;;;;24.90;13.80;;;;;;;1.53;93.26;102298.55;107530;1254;81762;-57
2023/01/23 02:00:58;;;;;;;27.20;14.80;;;;;;;1.56;93.29;102301.37;107521;1257;99500;-57
2023/01/23 02:03:35;;;;;;;26.90;14.90;;;;;;;1.59;93.05;102300.30;107565;1256;87563;-56
2023/01/23 02:06:08;;;;;;;26.00;14.40;;;;;;;1.56;93.23;102298.35;107512;1254;93918;-55
2023/01/23 02:08:49;;;;;;;25.10;14.10;;;;;;;1.58;93.27;102305.15;107539;1254;79297;-55
2023/01/23 02:11:23;;;;;;;27.10;15.40;;;;;;;1.56;93.32;102308.12;107544;1254;81955;-54
2023/01/23 02:13:56;;;;;;;29.50;15.40;;;;;;;1.54;93.45;102312.14;107537;1254;98628;-55
2023/01/23 02:16:39;;;;;;;26.00;14.40;;;;;;;1.55;93.37;102307.09;107536;1254;87452;-55
2023/01/23 02:19:38;;;;;;;26.70;14.70;;;;;;;1.51;93.38;102311.61;107494;1254;94699;-54
2023/01/23 02:22:25;;;;;;;29.30;14.60;;;;;;;1.50;93.45;102319.81;107448;1254;81987;-55
2023/01/23 02:25:09;;;;;;;25.00;13.70;;;;;;;1.47;93.39;102323.36;107494;1254;82636;-55
2023/01/23 02:27:44;;;;;;;27.50;14.80;;;;;;;1.49;93.34;102321.48;107469;1254;98768;-55
2023/01/23 02:30:17;;;;;;;;;;;;;;;1.50;93.47;102319.12;107491;1254;89196;-56
2023/01/23 02:33:06;;;;;;;32.70;14.80;;;;;;;1.50;93.55;102317.16;107409;1254;94362;-55
2023/01/23 02:35:57;;;;;;;27.20;14.80;;;;;;;1.55;93.29;102305.84;107436;1254;79275;-54
2023/01/23 02:38:40;;;;;;;24.90;13.60;;;;;;;1.57;93.40;102305.56;107446;1254;81460;-53
2023/01/23 02:41:27;;;;;;;24.60;13.50;;;;;;;1.55;93.50;102306.91;107500;1254;99887;-54
2023/01/23 02:44:06;;;;;;;29.60;15.10;;;;;;;1.52;93.43;102310.27;107402;1254;88311;-53
2023/01/23 02:46:41;;;;;;;28.80;15.10;;;;;;;1.50;93.59;102318.55;107374;1254;95377;-54
2023/01/23 02:49:14;;;;;;;26.70;14.10;;;;;;;1.50;93.47;102318.77;107474;1254;79412;-54
2023/01/23 02:51:48;;;;;;;30.90;15.40;;;;;;;1.54;93.43;102312.14;107486;1253;81216;-54
2023/01/23 02:54:25;;;;;;;29.40;15.70;;;;;;;1.54;93.48;102316.95;107454;1253;99289;-55
2023/01/23 02:57:03;;;;;;;30.00;14.40;;;;;;;1.56;93.61;102319.46;107533;1254;88163;-55
2023/01/23 03:02:31;;;;;;;33.90;16.60;;;;;;;1.57;93.45;102322.96;107591;1253;79949;-54
2023/01/23 03:05:07;;;;;;;25.10;14.80;;;;;;;1.63;93.56;102323.38;107603;1254;83021;-55
2023/01/23 03:07:41;;;;;;;26.80;14.00;;;;;;;1.65;93.34;102319.14;107619;1254;99513;-55
2023/01/23 03:10:12;;;;;;;;;;;;;;;1.62;93.59;102323.02;107664;1254;88965;-55
2023/01/23 03:12:52;;;;;;;25.50;14.10;;;;;;;1.60;93.57;102326.15;107573;1254;95457;-55
2023/01/23 03:15:25;;;;;;;25.90;15.20;;;;;;;1.60;93.50;102324.58;107647;1253;79793;-56
2023/01/23 03:18:00;;;;;;;28.60;14.50;;;;;;;1.61;93.54;102330.17;107656;1254;83306;-55
2023/01/23 03:20:41;;;;;;;28.70;14.60;;;;;;;1.53;93.55;102326.02;107581;1254;99702;-56
2023/01/23 03:23:24;;;;;;;28.30;15.10;;;;;;;1.48;93.51;102329.52;107657;1253;87635;-58
2023/01/23 03:26:00;;;;;;;29.90;16.20;;;;;;;1.47;93.64;102333.28;107512;1253;97241;-55
2023/01/23 03:31:29;;;;;;;30.00;14.90;;;;;;;1.47;93.65;102331.13;107596;1254;83321;-53
2023/01/23 03:34:05;;;;;;;24.10;13.70;;;;;;;1.49;93.62;102331.60;107565;1254;99014;-54
2023/01/23 03:36:40;;;;;;;26.40;15.10;;;;;;;1.44;93.69;102334.34;107573;1253;87023;-57
2023/01/23 03:42:19;;;;;;;25.40;14.50;;;;;;;1.50;93.77;102333.33;107560;1254;81375;-56
2023/01/23 03:44:54;;;;;;;30.60;15.90;;;;;;;1.52;93.66;102336.03;107091;1253;643671;-55
2023/01/23 03:47:34;;;;;;;27.80;14.60;;;;;;;1.54;93.88;102341.08;107553;1254;98275;-54
2023/01/23 03:50:10;;;;;;;25.00;13.70;;;;;;;1.56;93.70;102338.12;107583;1253;87559;-56
2023/01/23 03:52:46;;;;;;;28.30;14.60;;;;;;;1.56;93.67;102346.29;107549;1254;95567;-56
2023/01/23 03:55:18;;;;;;;28.20;14.60;;;;;;;1.60;93.73;102349.78;107568;1256;80087;-55
2023/01/23 03:57:53;;;;;;;27.50;14.60;;;;;;;1.63;93.64;102355.13;107485;1253;83811;-55
2023/01/23 04:00:35;;;;;;;26.80;13.70;;;;;;;1.64;93.60;102358.10;107509;1254;99099;-55
2023/01/23 04:03:13;;;;;;;25.50;13.70;;;;;;;1.68;93.57;102360.38;107541;1254;87973;-55
2023/01/23 04:05:44;;;;;;;27.00;14.30;;;;;;;1.69;93.60;102356.92;107485;1253;96114;-53
2023/01/23 04:08:21;;;;;;;27.60;14.90;;;;;;;1.68;93.57;102360.55;107613;1253;80030;-54
2023/01/23 04:11:03;;;;;;;26.90;14.00;;;;;;;1.60;93.49;102358.34;107541;1254;81680;-54
2023/01/23 04:13:38;;;;;;;28.00;15.30;;;;;;;1.56;93.57;102363.48;107506;1254;99126;-54
2023/01/23 04:16:11;;;;;;;28.80;15.50;;;;;;;1.57;93.56;102363.98;107504;1253;89045;-55
2023/01/23 04:18:44;;;;;;;27.70;14.80;;;;;;;1.61;93.34;102370.16;107489;1257;95182;-55
2023/01/23 04:21:25;;;;;;;26.30;14.60;;;;;;;1.60;93.39;102367.36;107502;1253;80243;-54
2023/01/23 04:24:02;;;;;;;29.50;15.40;;;;;;;1.60;93.51;102360.65;107411;1254;82674;-54
2023/01/23 04:26:45;;;;;;;27.30;13.50;;;;;;;1.58;93.67;102360.21;107456;1253;98610;-55
2023/01/23 04:29:20;;;;;;;24.10;13.80;;;;;;;1.55;93.58;102362.52;107441;1253;88087;-55
2023/01/23 04:31:56;;;;;;;28.70;14.40;;;;;;;1.59;93.68;102364.92;107446;1253;93620;-53
2023/01/23 04:34:36;;;;;;;23.80;13.30;;;;;;;1.60;93.70;102369.32;107442;1253;80290;-57
2023/01/23 04:37:16;;;;;;;27.70;13.90;;;;;;;1.61;93.75;102370.13;107519;1253;81918;-57
2023/01/23 04:39:53;;;;;;;28.30;14.90;;;;;;;1.65;93.64;102377.38;107538;1253;99009;-57
2023/01/23 04:42:32;;;;;;;25.40;15.10;;;;;;;1.62;93.62;102377.77;107524;1253;89311;-57
2023/01/23 04:45:11;;;;;;;30.30;15.00;;;;;;;1.62;93.73;102376.70;107491;1253;94426;-54
2023/01/23 04:47:48;;;;;;;30.50;13.90;;;;;;;1.64;93.78;102378.89;107470;1254;81304;-54
2023/01/23 04:50:27;;;;;;;30.80;14.50;;;;;;;1.63;93.67;102378.02;107431;1253;83041;-55
2023/01/23 04:53:07;;;;;;;24.80;14.00;;;;;;;1.62;93.73;102377.02;107428;1257;98819;-55
2023/01/23 04:55:45;;;;;;;28.30;14.60;;;;;;;1.61;93.80;102383.48;107507;1254;87776;-54
2023/01/23 04:58:22;;;;;;;27.60;14.60;;;;;;;1.67;93.58;102381.75;107470;1257;95549;-54
2023/01/23 05:01:02;;;;;;;25.10;14.10;;;;;;;1.65;93.69;102387.31;107529;1253;79357;-54
2023/01/23 05:03:36;;;;;;;26.70;15.00;;;;;;;1.61;93.69;102388.42;107497;1253;83449;-54
2023/01/23 05:06:14;;;;;;;26.00;14.70;;;;;;;1.60;93.59;102385.12;107557;1254;98798;-54
2023/01/23 05:08:46;;;;;;;26.70;15.30;;;;;;;1.53;93.60;102384.80;107505;1253;88632;-54
2023/01/23 05:11:21;;;;;;;28.90;15.90;;;;;;;1.53;93.67;102389.79;107520;1253;94461;-56
2023/01/23 05:13:59;;;;;;;28.80;14.70;;;;;;;1.54;93.72;102394.69;107588;1252;79560;-56
2023/01/23 05:16:32;;;;;;;27.20;14.60;;;;;;;1.57;93.68;102394.32;107591;1253;83260;-54
2023/01/23 05:19:06;;;;;;;29.90;15.90;;;;;;;1.54;93.77;102393.98;107562;1253;99691;-55
2023/01/23 05:21:44;;;;;;;27.00;15.10;;;;;;;1.57;93.69;102394.53;107534;1253;88583;-56
2023/01/23 05:24:21;;;;;;;28.80;15.00;;;;;;;1.58;93.62;102389.70;107474;1253;94144;-54
2023/01/23 05:26:58;;;;;;;28.50;14.70;;;;;;;1.57;93.72;102388.87;107478;1253;80920;-54
2023/01/23 05:29:34;;;;;;;29.40;15.90;;;;;;;1.59;93.80;102388.22;107460;1253;82054;-54
2023/01/23 05:32:13;;;;;;;28.50;15.30;;;;;;;1.60;93.82;102393.85;107557;1253;99439;-55
2023/01/23 05:34:46;;;;;;;29.10;16.50;;;;;;;1.58;93.90;102395.02;107544;1253;87212;-54
2023/01/23 05:37:24;;;;;;;28.00;15.00;;;;;;;1.62;93.72;102394.44;107518;1253;94037;-54
2023/01/23 05:39:58;;;;;;;26.20;14.90;;;;;;;1.63;93.53;102400.41;107477;1254;81072;-55
2023/01/23 05:42:34;;;;;;;;;;;;;;;1.63;93.71;102406.96;107505;1253;82935;-54
2023/01/23 05:45:08;;;;;;;27.10;15.20;;;;;;;1.63;93.72;102408.77;107487;1254;100387;-56
2023/01/23 05:47:39;;;;;;;31.30;16.80;;;;;;;1.64;93.77;102411.89;107578;1253;87585;-56
2023/01/23 05:50:17;;;;;;;32.10;16.70;;;;;;;1.63;93.62;102416.41;107609;1254;95149;-54
2023/01/23 05:52:51;;;;;;;32.00;16.40;;;;;;;1.62;93.74;102418.77;107564;1253;80158;-55
2023/01/23 05:55:33;;;;;;;32.00;16.80;;;;;;;1.59;93.71;102417.48;107531;1253;81880;-56
2023/01/23 05:58:12;;;;;;;30.80;16.90;;;;;;;1.62;93.65;102427.11;107482;1253;96977;-55
2023/01/23 06:00:47;;;;;;;27.50;15.30;;;;;;;1.61;93.76;102437.27;107479;1253;88745;-60
2023/01/23 06:03:27;;;;;;;31.20;15.00;;;;;;;1.65;93.60;102434.76;107452;1257;93782;-56
2023/01/23 06:06:03;;;;;;;29.10;15.90;;;;;;;1.63;93.76;102435.89;107535;1256;81500;-56
2023/01/23 06:08:35;;;;;;;34.40;16.90;;;;;;;1.61;93.71;102438.52;107569;1253;81863;-54
2023/01/23 06:11:07;;;;;;;30.30;15.40;;;;;;;1.63;93.70;102440.20;107493;1256;100053;-53
2023/01/23 06:13:44;;;;;;;31.80;16.40;;;;;;;1.63;93.55;102444.27;107522;1253;89229;-57
2023/01/23 06:16:20;;;;;;;28.20;15.50;;;;;;;1.64;93.64;102445.63;107551;1253;95501;-54
2023/01/23 06:18:58;;;;;;;32.80;16.40;;;;;;;1.67;93.70;102454.36;107456;1254;80306;-54
2023/01/23 06:21:37;;;;;;;31.80;16.20;;;;;;;1.66;93.64;102458.50;107473;1254;81811;-53
2023/01/23 06:24:10;;;;;;;31.50;15.80;;;;;;;1.64;93.76;102460.39;107490;1253;99794;-55
2023/01/23 06:26:50;;;;;;;30.80;16.10;;;;;;;1.67;93.67;102464.66;107498;1253;86815;-54
2023/01/23 06:29:24;;;;;;;30.60;16.00;;;;;;;1.62;93.78;102469.71;107482;1257;95115;-54
2023/01/23 06:32:00;;;;;;;28.70;16.70;;;;;;;1.54;93.76;102476.35;107484;1253;79524;-53
2023/01/23 06:34:45;;;;;;;29.80;16.50;;;;;;;1.56;93.78;102479.80;107549;1253;83685;-53
2023/01/23 06:37:23;;;;;;;31.10;15.70;;;;;;;1.56;93.66;102491.52;107467;1256;97765;-57
2023/01/23 06:40:04;;;;;;;26.10;15.40;;;;;;;1.60;93.73;102499.80;107527;1253;89133;-55
2023/01/23 06:42:42;;;;;;;28.30;16.90;;;;;;;1.62;93.56;102501.70;107482;1254;94086;-53
2023/01/23 06:45:13;;;;;;;33.30;17.70;;;;;;;1.64;93.55;102511.36;107440;1254;81326;-56
2023/01/23 06:47:51;;;;;;;32.80;16.30;;;;;;;1.66;93.60;102518.33;107560;1253;82894;-55
2023/01/23 06:50:27;;;;;;;36.30;16.90;;;;;;;1.65;93.64;102516.96;107521;1253;99544;-56
2023/01/23 06:53:02;;;;;;;34.20;17.70;;;;;;;1.62;93.62;102518.02;107510;1253;87977;-57
2023/01/23 06:55:37;;;;;;;28.70;15.30;;;;;;;1.59;93.59;102520.46;107568;1253;94935;-56
2023/01/23 06:58:09;;;;;;;31.40;17.40;;;;;;;1.64;93.51;102522.88;107563;1256;80160;-56
2023/01/23 07:00:43;;;;;;;28.00;15.90;;;;;;;1.62;93.74;102522.81;107560;1253;82569;-56
2023/01/23 07:03:23;;;;;;;28.60;15.80;;;;;;;1.63;93.73;102520.83;107485;1253;98312;-53
2023/01/23 07:06:05;;;;;;;32.40;16.70;;;;;;;1.63;93.78;102521.55;107523;1257;87911;-54
2023/01/23 07:08:42;;;;;;;31.70;15.80;;;;;;;1.64;93.75;102523.96;107437;1253;94565;-54
2023/01/23 07:11:17;;;;;;;31.00;16.00;;;;;;;1.61;93.59;102527.46;107521;1256;81672;-52
2023/01/23 07:13:50;;;;;;;29.80;16.10;;;;;;;1.59;93.79;102531.14;107536;1253;80478;-53
2023/01/23 07:16:23;;;;;;;28.20;15.80;;;;;;;1.62;93.58;102534.20;107460;1259;99421;-55
2023/01/23 07:19:07;;;;;;;32.60;17.00;;;;;;;1.65;93.60;102535.63;107534;1253;88450;-58
2023/01/23 07:21:42;;;;;;;30.20;15.10;;;;;;;1.65;93.74;102540.25;107369;1253;93754;-55
2023/01/23 07:24:22;;;;;;;33.90;17.60;;;;;;;1.70;93.63;102534.98;107519;1253;80292;-55
2023/01/23 07:26:56;;;;;;;31.20;16.50;;;;;;;1.72;93.67;102535.27;107461;1253;82964;-55
2023/01/23 07:29:27;;;;;;;30.60;16.20;;;;;;;1.73;93.58;102536.80;107463;1253;97453;-54
2023/01/23 07:32:06;;;;;;;40.20;16.80;;;;;;;1.68;93.49;102538.84;107463;1253;87661;-53
2023/01/23 07:34:44;;;;;;;36.80;17.00;;;;;;;1.67;93.74;102540.48;107446;1253;95493;-54
2023/01/23 07:37:19;;;;;;;42.70;17.40;;;;;;;1.71;93.49;102541.00;107456;1253;79942;-54
2023/01/23 07:39:59;;;;;;;43.70;19.90;;;;;;;1.69;93.64;102540.92;107453;1253;81690;-57
2023/01/23 07:42:35;;;;;;;33.70;17.60;;;;;;;1.67;93.84;102540.27;107433;1254;100350;-56
2023/01/23 07:45:10;;;;;;;37.80;16.20;;;;;;;1.69;93.74;102538.62;107448;1253;89210;-55
2023/01/23 07:47:41;;;;;;;59.20;21.00;;;;;;;1.74;93.74;102538.86;107233;1256;94117;-55
2023/01/23 07:50:19;;;;;;;49.30;19.70;;;;;;;1.78;93.56;102537.24;107476;1254;81145;-55
2023/01/23 07:52:58;;;;;;;41.50;18.30;;;;;;;1.82;93.56;102537.61;107471;1253;81974;-55
2023/01/23 07:55:37;;;;;;;56.10;23.40;;;;;;;1.85;93.67;102542.59;107457;1257;98845;-55
2023/01/23 07:58:15;;;;;;;29.00;16.10;;;;;;;1.88;93.62;102543.46;107468;1255;88046;-54
2023/01/23 08:00:46;;;;;;;34.00;16.40;;;;;;;1.85;93.72;102545.60;107460;1253;95287;-54
2023/01/23 08:03:20;;;;;;;34.50;17.60;;;;;;;1.86;93.55;102554.61;107449;1254;77278;-54
2023/01/23 08:05:58;;;;;;;33.50;18.30;;;;;;;1.83;93.71;102557.45;107468;1253;80614;-54
2023/01/23 08:08:34;;;;;;;31.50;17.60;;;;;;;1.78;93.61;102560.69;107534;1257;99819;-54
2023/01/23 08:11:12;;;;;;;30.60;16.30;;;;;;;1.74;93.58;102556.27;107498;1254;88489;-57
2023/01/23 08:13:50;;;;;;;33.00;18.80;;;;;;;1.73;93.44;102559.52;107416;1253;94877;-56
2023/01/23 08:16:25;;;;;;;34.50;18.70;;;;;;;1.74;93.40;102563.57;107527;1253;79234;-55
2023/01/23 08:19:02;;;;;;;35.10;18.90;;;;;;;1.76;93.56;102565.39;107493;1253;80510;-55
2023/01/23 08:21:36;;;;;;;31.20;16.80;;;;;;;1.76;93.48;102565.21;107447;1257;97897;-53
2023/01/23 08:24:12;;;;;;;30.40;17.60;;;;;;;1.80;93.53;102562.88;107545;1253;87409;-52
2023/01/23 08:26:48;;;;;;;31.80;16.90;;;;;;;1.85;93.58;102564.56;107492;1254;95581;-55
2023/01/23 08:29:27;;;;;;;32.60;18.00;;;;;;;1.85;93.39;102565.48;107447;1253;81526;-55
2023/01/23 08:32:01;;;;;;;29.90;17.20;;;;;;;1.85;93.49;102575.41;107450;1257;81924;-54
2023/01/23 08:34:36;;;;;;;31.80;17.30;;;;;;;1.90;93.66;102575.73;107493;1253;100014;-57
2023/01/23 08:37:11;;;;;;;30.20;17.50;;;;;;;1.92;93.45;102578.10;107386;1253;87409;-56
2023/01/23 08:39:49;;;;;;;31.60;18.20;;;;;;;1.93;93.54;102580.32;107528;1253;94048;-53
2023/01/23 08:42:30;;;;;;;30.30;17.10;;;;;;;1.99;93.45;102584.48;107491;1253;79739;-55
2023/01/23 08:45:03;;;;;;;34.40;17.40;;;;;;;2.00;93.33;102589.89;107529;1253;82191;-55
2023/01/23 08:47:37;;;;;;;29.40;17.40;;;;;;;1.96;93.53;102593.68;107518;1253;99773;-55
2023/01/23 08:50:16;;;;;;;32.70;17.90;;;;;;;1.97;93.50;102600.38;107529;1256;87307;-55
2023/01/23 08:52:50;;;;;;;37.30;20.30;;;;;;;1.98;93.64;102604.07;107513;1254;94171;-61
2023/01/23 08:55:23;;;;;;;40.90;27.40;;;;;;;1.98;93.61;102607.23;107502;1253;79976;-58
2023/01/23 08:58:07;;;;;;;33.90;19.40;;;;;;;1.99;93.40;102610.39;107407;1254;80456;-56
2023/01/23 09:00:43;;;;;;;34.90;17.90;;;;;;;2.00;93.19;102611.96;107527;1253;99046;-54
2023/01/23 09:03:18;;;;;;;31.80;18.00;;;;;;;1.95;93.26;102608.11;107565;1253;88854;-55
2023/01/23 09:05:58;;;;;;;31.20;18.10;;;;;;;1.96;93.12;102607.75;107522;1253;92413;-57
2023/01/23 09:08:29;;;;;;;31.40;18.10;;;;;;;1.91;93.21;102602.11;107468;1253;79926;-53
2023/01/23 09:11:12;;;;;;;31.90;16.40;;;;;;;1.95;93.39;102606.70;107537;1253;82416;-57
2023/01/23 09:13:53;;;;;;;31.70;18.80;;;;;;;2.01;93.14;102600.70;107529;1253;99186;-56
2023/01/23 09:16:27;;;;;;;76.60;39.60;;;;;;;2.02;93.20;102597.06;107512;1253;87591;-55
2023/01/23 09:19:06;;;;;;;36.30;20.10;;;;;;;2.06;93.23;102596.86;107539;1253;93874;-56
2023/01/23 09:21:41;;;;;;;30.70;18.30;;;;;;;2.03;93.24;102593.81;107529;1253;81663;-56
2023/01/23 09:24:16;;;;;;;32.80;17.60;;;;;;;2.02;93.34;102596.77;107497;1253;83347;-55
2023/01/23 09:26:55;;;;;;;30.00;17.80;;;;;;;2.08;93.43;102590.88;107508;1253;99073;-54
2023/01/23 09:29:27;;;;;;;35.40;17.20;;;;;;;2.10;93.40;102595.23;107393;1253;90089;-56
2023/01/23 09:32:03;;;;;;;32.50;17.70;;;;;;;2.12;93.21;102592.44;107517;1257;95479;-56
2023/01/23 09:34:39;;;;;;;35.70;19.30;;;;;;;2.13;93.27;102587.08;107490;1253;80078;-56
2023/01/23 09:37:16;;;;;;;33.40;18.30;;;;;;;2.12;93.40;102585.52;107497;1253;81692;-58
2023/01/23 09:39:52;;;;;;;35.20;17.80;;;;;;;2.15;93.17;102581.30;107561;1253;98333;-56
2023/01/23 09:42:34;;;;;;;34.10;19.60;;;;;;;2.12;93.18;102578.41;107497;1253;89307;-55
2023/01/23 09:45:14;;;;;;;47.50;21.20;;;;;;;2.09;93.10;102577.17;107540;1253;92484;-54
2023/01/23 09:47:58;;;;;;;37.60;19.40;;;;;;;2.03;93.21;102578.58;107507;1257;80424;-54
2023/01/23 09:50:39;;;;;;;33.50;17.80;;;;;;;2.03;93.30;102578.02;107542;1253;82422;-52
2023/01/23 09:53:20;;;;;;;32.60;17.80;;;;;;;2.10;93.31;102580.14;107530;1256;99053;-56
2023/01/23 09:56:04;;;;;;;34.00;18.30;;;;;;;2.11;93.19;102576.68;107556;1257;87776;-55
2023/01/23 09:58:48;;;;;;;39.40;18.80;;;;;;;2.12;93.38;102577.17;107393;1253;94565;-55
2023/01/23 10:01:27;;;;;;;43.10;18.50;;;;;;;2.20;93.26;102573.52;107463;1253;81254;-54
2023/01/23 10:04:06;;;;;;;59.30;24.30;;;;;;;2.28;93.32;102572.23;107470;1253;82820;-57
2023/01/23 10:07:14;;;;;;;55.10;22.60;;;;;;;2.32;93.28;102581.07;107539;1253;97570;-53
2023/01/23 10:10:15;;;;;;;61.00;22.50;;;;;;;2.32;93.02;102581.77;107523;1253;86792;-57
2023/01/23 10:13:05;;;;;;;36.90;19.70;;;;;;;2.33;92.95;102583.14;107512;1257;94319;-55
2023/01/23 10:16:09;;;;;;;34.60;17.20;;;;;;;2.30;93.11;102581.89;107483;1254;79720;-52
2023/01/23 10:19:01;;;;;;;32.00;18.20;;;;;;;2.30;92.88;102582.07;107490;1253;80473;-53
2023/01/23 10:21:44;;;;;;;75.30;20.50;;;;;;;2.28;92.86;102580.23;107496;1256;98323;-54
2023/01/23 10:24:41;;;;;;;56.30;21.30;;;;;;;2.26;92.77;102578.72;107488;1253;89105;-54
2023/01/23 10:27:20;;;;;;;100.80;27.70;;;;;;;2.25;92.92;102581.77;107400;1253;94825;-55
2023/01/23 10:30:05;;;;;;;46.40;19.70;;;;;;;2.26;92.94;102579.43;107475;1253;78845;-55
2023/01/23 10:32:52;;;;;;;34.70;18.60;;;;;;;2.26;92.93;102579.23;107508;1253;81996;-55
2023/01/23 10:35:34;;;;;;;30.50;17.40;;;;;;;2.25;92.92;102580.88;107493;1257;97103;-55
2023/01/23 10:38:25;;;;;;;31.40;17.40;;;;;;;2.27;92.91;102582.41;107525;1253;88144;-55
2023/01/23 10:41:18;;;;;;;31.70;17.50;;;;;;;2.28;92.90;102586.10;107499;1253;95858;-54
2023/01/23 10:43:56;;;;;;;33.50;19.50;;;;;;;2.27;92.98;102582.92;107478;1257;80985;-53
2023/01/23 10:46:46;;;;;;;32.40;18.30;;;;;;;2.34;93.05;102585.22;107530;1253;82775;-55
2023/01/23 10:49:43;;;;;;;30.00;19.60;;;;;;;2.37;92.93;102578.29;107547;1253;99670;-54
2023/01/23 10:52:36;;;;;;;29.90;17.50;;;;;;;2.42;92.68;102579.66;107551;1253;85421;-55
2023/01/23 10:55:30;;;;;;;33.20;18.30;;;;;;;2.42;92.69;102573.80;107546;1253;93955;-54
2023/01/23 10:58:02;;;;;;;37.60;20.20;;;;;;;2.37;92.76;102570.83;107545;1253;80433;-54
2023/01/23 11:00:45;;;;;;;36.30;22.20;;;;;;;2.36;92.89;102569.63;107581;1253;83382;-53
2023/01/23 11:03:36;;;;;;;56.90;20.60;;;;;;;2.37;92.72;102573.50;107558;1253;100677;-54
2023/01/23 11:06:18;;;;;;;31.00;18.00;;;;;;;2.38;92.76;102576.66;107542;1253;87559;-55
2023/01/23 11:09:00;;;;;;;35.90;19.30;;;;;;;2.42;92.76;102578.04;107557;1253;95398;-54
2023/01/23 11:11:35;;;;;;;33.40;18.80;;;;;;;2.45;92.69;102568.63;107513;1253;78980;-54
2023/01/23 11:14:21;;;;;;;34.60;21.70;;;;;;;2.45;92.67;102568.77;107516;1254;81718;-54
2023/01/23 11:17:03;;;;;;;28.90;18.00;;;;;;;2.47;92.86;102572.97;107377;1253;98894;-55
2023/01/23 11:19:43;;;;;;;32.00;17.40;;;;;;;2.49;92.67;102570.86;107569;1253;87514;-57
2023/01/23 11:22:37;;;;;;;31.80;18.50;;;;;;;2.50;92.67;102572.75;107345;1259;96134;-57
2023/01/23 11:25:31;;;;;;;37.20;20.30;;;;;;;2.55;92.58;102573.05;107538;1253;79053;-57
2023/01/23 11:28:24;;;;;;;33.50;18.60;;;;;;;2.55;92.70;102573.23;107574;1253;79727;-57
2023/01/23 11:31:05;;;;;;;33.90;18.50;;;;;;;2.57;92.63;102568.81;107525;1254;100343;-55
2023/01/23 11:33:43;;;;;;;33.20;19.60;;;;;;;2.59;92.62;102569.77;107506;1253;88955;-55
2023/01/23 11:36:54;;;;;;;36.00;20.00;;;;;;;2.59;92.60;102567.27;107490;1253;94253;-54
2023/01/23 11:39:48;;;;;;;40.70;22.00;;;;;;;2.52;92.60;102565.20;107050;1259;80540;-58
2023/01/23 11:42:28;;;;;;;37.90;20.60;;;;;;;2.48;92.64;102556.16;107430;1253;83497;-57
2023/01/23 11:45:13;;;;;;;36.30;20.60;;;;;;;2.49;92.61;102548.11;107055;1253;613809;-54
2023/01/23 11:48:10;;;;;;;37.80;20.60;;;;;;;2.53;92.53;102546.48;107576;1258;88006;-53
2023/01/23 11:50:52;;;;;;;32.70;20.00;;;;;;;2.55;92.52;102539.05;107533;1254;94309;-54
2023/01/23 11:53:37;;;;;;;36.70;20.90;;;;;;;2.58;92.66;102541.17;107493;1253;79307;-54
2023/01/23 11:56:42;;;;;;;34.20;20.30;;;;;;;2.60;92.38;102540.71;107415;1253;82845;-54
2023/01/23 11:59:55;;;;;;;40.40;22.50;;;;;;;2.60;92.51;102539.68;107568;1253;97582;-54
2023/01/23 12:03:31;;;;;;;39.50;23.00;;;;;;;2.65;92.38;102542.77;107429;1253;89131;-55
2023/01/23 12:06:47;;;;;;;38.10;23.70;;;;;;;2.65;92.40;102540.41;107500;1253;95171;-55
2023/01/23 12:09:25;;;;;;;36.50;20.80;;;;;;;2.62;92.37;102543.13;107548;1253;78507;-57
2023/01/23 12:12:15;;;;;;;39.20;21.90;;;;;;;2.57;92.19;102545.16;107534;1253;82843;-55